createdAt,value
2023-03-17T00:00:25.345Z,959.80
2023-03-17T00:00:57.398Z,959.40
2023-03-17T00:01:26.467Z,959.40
2023-03-17T00:01:58.185Z,959.60
2023-03-17T00:02:28.673Z,959.70
2023-03-17T00:02:59.712Z,959.70
2023-03-17T00:03:30.480Z,959.80
2023-03-17T00:04:01.461Z,959.80
2023-03-17T00:04:32.390Z,959.60
2023-03-17T00:05:03.726Z,959.60
2023-03-17T00:05:34.302Z,959.60
2023-03-17T00:06:05.455Z,959.60
2023-03-17T00:06:36.356Z,959.60
2023-03-17T00:07:07.664Z,959.60
2023-03-17T00:07:38.513Z,959.70
2023-03-17T00:08:09.334Z,959.70
2023-03-17T00:08:40.299Z,959.60
2023-03-17T00:09:11.563Z,959.60
2023-03-17T00:09:42.551Z,959.80
2023-03-17T00:10:14.011Z,959.80
2023-03-17T00:10:44.302Z,959.50
2023-03-17T00:11:15.707Z,959.50
2023-03-17T00:11:46.589Z,959.70
2023-03-17T00:12:17.656Z,959.70
2023-03-17T00:12:48.322Z,959.70
2023-03-17T00:13:19.282Z,959.70
2023-03-17T00:13:50.627Z,959.60
2023-03-17T00:14:21.349Z,959.60
2023-03-17T00:14:52.357Z,959.60
2023-03-17T00:15:25.158Z,959.60
2023-03-17T00:15:54.426Z,959.90
2023-03-17T00:16:25.399Z,959.90
2023-03-17T00:16:56.334Z,959.70
2023-03-17T00:17:27.324Z,959.70
2023-03-17T00:17:58.340Z,959.60
2023-03-17T00:18:29.715Z,959.70
2023-03-17T00:19:00.909Z,959.70
2023-03-17T00:19:31.480Z,959.60
2023-03-17T00:20:02.982Z,959.60
2023-03-17T00:20:33.667Z,959.70
2023-03-17T00:21:04.322Z,959.70
2023-03-17T00:21:35.367Z,959.90
2023-03-17T00:22:06.399Z,959.90
2023-03-17T00:22:37.472Z,959.70
2023-03-17T00:23:08.671Z,959.70
2023-03-17T00:23:39.709Z,959.80
2023-03-17T00:24:11.870Z,959.80
2023-03-17T00:24:41.754Z,959.80
2023-03-17T00:25:13.600Z,959.80
2023-03-17T00:25:43.697Z,959.70
2023-03-17T00:26:14.337Z,959.70
2023-03-17T00:26:45.688Z,959.60
2023-03-17T00:27:16.335Z,959.60
2023-03-17T00:27:47.364Z,959.60
2023-03-17T00:28:18.701Z,959.60
2023-03-17T00:28:49.743Z,959.60
2023-03-17T00:29:20.710Z,959.60
2023-03-17T00:29:51.916Z,959.80
2023-03-17T00:30:23.999Z,959.80
2023-03-17T00:30:53.402Z,959.60
2023-03-17T00:31:25.482Z,959.60
2023-03-17T00:31:55.631Z,959.50
2023-03-17T00:32:27.607Z,959.50
2023-03-17T00:32:57.430Z,959.70
2023-03-17T00:33:28.596Z,959.70
2023-03-17T00:33:59.645Z,959.70
2023-03-17T00:34:30.387Z,959.50
2023-03-17T00:35:01.836Z,959.50
2023-03-17T00:35:32.680Z,959.60
2023-03-17T00:36:03.809Z,959.60
2023-03-17T00:36:34.726Z,959.70
2023-03-17T00:37:06.164Z,959.70
2023-03-17T00:37:36.867Z,959.60
2023-03-17T00:38:07.728Z,959.60
2023-03-17T00:38:38.600Z,959.50
2023-03-17T00:39:09.799Z,959.50
2023-03-17T00:39:40.777Z,959.50
2023-03-17T00:40:12.167Z,959.50
2023-03-17T00:40:42.549Z,959.60
2023-03-17T00:41:13.409Z,959.60
2023-03-17T00:41:44.864Z,959.50
2023-03-17T00:42:15.665Z,959.50
2023-03-17T00:42:46.600Z,959.60
2023-03-17T00:43:17.692Z,959.60
2023-03-17T00:43:48.697Z,959.40
2023-03-17T00:44:19.441Z,959.40
2023-03-17T00:44:50.819Z,959.40
2023-03-17T00:45:23.074Z,959.40
2023-03-17T00:45:52.932Z,959.40
2023-03-17T00:46:23.852Z,959.40
2023-03-17T00:46:54.678Z,959.60
2023-03-17T00:47:25.452Z,959.60
2023-03-17T00:47:56.822Z,959.50
2023-03-17T00:48:27.748Z,959.50
2023-03-17T00:48:58.654Z,959.29
2023-03-17T00:49:29.819Z,959.29
2023-03-17T00:50:00.890Z,959.29
2023-03-17T00:50:32.269Z,959.40
2023-03-17T00:51:02.665Z,959.40
2023-03-17T00:51:33.665Z,959.40
2023-03-17T00:52:04.660Z,959.40
2023-03-17T00:52:35.757Z,959.40
2023-03-17T00:53:07.019Z,959.40
2023-03-17T00:53:37.789Z,959.40
2023-03-17T00:54:08.871Z,959.40
2023-03-17T00:54:39.419Z,959.40
2023-03-17T00:55:10.891Z,959.40
2023-03-17T00:55:41.443Z,959.29
2023-03-17T00:56:12.850Z,959.29
2023-03-17T00:56:43.726Z,959.29
2023-03-17T00:57:14.464Z,959.29
2023-03-17T00:57:45.813Z,959.29
2023-03-17T00:58:16.784Z,959.29
2023-03-17T00:58:47.690Z,959.19
2023-03-17T00:59:19.529Z,959.19
2023-03-17T00:59:49.690Z,959.29
2023-03-17T01:00:21.984Z,959.29
2023-03-17T01:00:51.712Z,959.40
2023-03-17T01:01:22.736Z,959.40
2023-03-17T01:01:53.427Z,959.19
2023-03-17T01:02:24.753Z,959.19
2023-03-17T01:02:57.512Z,959.19
2023-03-17T01:03:26.558Z,959.19
2023-03-17T01:03:59.641Z,959.09
2023-03-17T01:04:28.994Z,959.29
2023-03-17T01:05:06.003Z,959.29
2023-03-17T01:05:31.377Z,959.19
2023-03-17T01:06:01.585Z,959.19
2023-03-17T01:06:32.464Z,958.99
2023-03-17T01:07:03.373Z,958.99
2023-03-17T01:07:34.883Z,959.19
2023-03-17T01:08:05.704Z,959.19
2023-03-17T01:08:37.091Z,959.09
2023-03-17T01:09:07.497Z,959.09
2023-03-17T01:09:38.492Z,959.19
2023-03-17T01:10:09.876Z,959.19
2023-03-17T01:10:40.725Z,959.40
2023-03-17T01:11:11.858Z,959.40
2023-03-17T01:11:42.653Z,959.19
2023-03-17T01:12:13.770Z,959.19
2023-03-17T01:12:44.679Z,959.19
2023-03-17T01:13:15.526Z,959.19
2023-03-17T01:13:46.727Z,959.40
2023-03-17T01:14:18.483Z,959.40
2023-03-17T01:14:48.819Z,959.19
2023-03-17T01:15:20.642Z,959.19
2023-03-17T01:15:50.727Z,958.99
2023-03-17T01:16:21.798Z,958.99
2023-03-17T01:16:53.053Z,959.09
2023-03-17T01:17:23.627Z,959.09
2023-03-17T01:17:54.684Z,959.09
2023-03-17T01:18:25.530Z,959.09
2023-03-17T01:18:56.856Z,958.99
2023-03-17T01:19:27.647Z,958.99
2023-03-17T01:19:58.469Z,959.19
2023-03-17T01:20:30.157Z,959.19
2023-03-17T01:21:00.676Z,959.19
2023-03-17T01:21:31.514Z,959.09
2023-03-17T01:22:02.464Z,959.09
2023-03-17T01:22:33.535Z,958.99
2023-03-17T01:23:04.606Z,958.99
2023-03-17T01:23:35.667Z,958.99
2023-03-17T01:24:06.888Z,958.99
2023-03-17T01:24:37.758Z,959.09
2023-03-17T01:25:09.042Z,959.09
2023-03-17T01:25:39.531Z,959.19
2023-03-17T01:26:10.761Z,959.19
2023-03-17T01:26:41.472Z,959.19
2023-03-17T01:27:12.751Z,959.19
2023-03-17T01:27:43.642Z,958.79
2023-03-17T01:28:14.700Z,958.79
2023-03-17T01:28:45.729Z,959.40
2023-03-17T01:29:16.745Z,959.40
2023-03-17T01:29:47.505Z,959.09
2023-03-17T01:30:19.499Z,959.09
2023-03-17T01:30:49.746Z,958.99
2023-03-17T01:31:20.615Z,958.99
2023-03-17T01:31:51.472Z,958.99
2023-03-17T01:32:22.748Z,958.99
2023-03-17T01:32:53.900Z,958.99
2023-03-17T01:33:24.734Z,958.99
2023-03-17T01:33:55.780Z,958.99
2023-03-17T01:34:29.144Z,958.68
2023-03-17T01:34:57.891Z,958.68
2023-03-17T01:35:30.385Z,958.89
2023-03-17T01:35:59.563Z,958.89
2023-03-17T01:36:30.948Z,959.09
2023-03-17T01:37:01.745Z,959.09
2023-03-17T01:37:32.749Z,959.19
2023-03-17T01:38:03.758Z,959.19
2023-03-17T01:38:34.794Z,958.89
2023-03-17T01:39:06.106Z,958.89
2023-03-17T01:39:37.007Z,958.79
2023-03-17T01:40:08.073Z,958.79
2023-03-17T01:40:38.762Z,958.99
2023-03-17T01:41:09.791Z,958.99
2023-03-17T01:41:40.760Z,958.89
2023-03-17T01:42:11.869Z,958.89
2023-03-17T01:42:42.711Z,958.89
2023-03-17T01:43:14.000Z,958.89
2023-03-17T01:43:44.978Z,958.58
2023-03-17T01:44:15.914Z,958.58
2023-03-17T01:44:46.645Z,958.79
2023-03-17T01:45:19.003Z,958.79
2023-03-17T01:45:49.010Z,958.68
2023-03-17T01:46:19.616Z,958.68
2023-03-17T01:46:50.556Z,958.58
2023-03-17T01:47:22.022Z,958.58
2023-03-17T01:47:52.872Z,958.52
2023-03-17T01:48:23.828Z,958.52
2023-03-17T01:48:54.992Z,958.68
2023-03-17T01:49:25.883Z,958.68
2023-03-17T01:49:56.611Z,958.68
2023-03-17T01:50:28.623Z,958.68
2023-03-17T01:50:58.903Z,958.58
2023-03-17T01:51:30.113Z,958.52
2023-03-17T01:52:00.940Z,958.52
2023-03-17T01:52:31.821Z,958.58
2023-03-17T01:53:02.857Z,958.58
2023-03-17T01:53:33.966Z,958.41
2023-03-17T01:54:05.211Z,958.41
2023-03-17T01:54:36.229Z,958.68
2023-03-17T01:55:07.233Z,958.68
2023-03-17T01:55:37.599Z,958.58
2023-03-17T01:56:08.946Z,958.58
2023-03-17T01:56:40.593Z,958.89
2023-03-17T01:57:10.929Z,958.89
2023-03-17T01:57:41.848Z,958.68
2023-03-17T01:58:13.010Z,958.68
2023-03-17T01:58:43.827Z,958.68
2023-03-17T01:59:15.000Z,958.68
2023-03-17T01:59:46.016Z,958.58
2023-03-17T02:00:18.006Z,958.58
2023-03-17T02:00:47.697Z,958.58
2023-03-17T02:01:19.225Z,958.58
2023-03-17T02:01:49.691Z,958.68
2023-03-17T02:02:20.629Z,958.68
2023-03-17T02:02:51.678Z,958.79
2023-03-17T02:03:22.722Z,958.79
2023-03-17T02:03:54.048Z,958.58
2023-03-17T02:04:24.926Z,958.58
2023-03-17T02:04:55.785Z,958.52
2023-03-17T02:05:27.649Z,958.52
2023-03-17T02:06:00.161Z,958.58
2023-03-17T02:06:29.007Z,958.58
2023-03-17T02:07:01.052Z,958.58
2023-03-17T02:07:31.013Z,958.58
2023-03-17T02:08:02.971Z,958.58
2023-03-17T02:08:32.690Z,958.58
2023-03-17T02:09:03.829Z,958.58
2023-03-17T02:09:35.064Z,958.52
2023-03-17T02:10:06.244Z,958.52
2023-03-17T02:10:37.074Z,958.52
2023-03-17T02:11:07.660Z,958.52
2023-03-17T02:11:38.809Z,958.52
2023-03-17T02:12:09.752Z,958.52
2023-03-17T02:12:40.695Z,958.52
2023-03-17T02:13:11.961Z,958.52
2023-03-17T02:13:42.657Z,958.52
2023-03-17T02:14:13.709Z,958.52
2023-03-17T02:14:45.176Z,958.21
2023-03-17T02:15:17.056Z,958.21
2023-03-17T02:15:47.063Z,958.31
2023-03-17T02:16:18.126Z,958.31
2023-03-17T02:16:49.075Z,958.31
2023-03-17T02:17:19.703Z,958.31
2023-03-17T02:17:51.110Z,958.41
2023-03-17T02:18:22.072Z,958.41
2023-03-17T02:18:53.103Z,958.58
2023-03-17T02:19:24.060Z,958.58
2023-03-17T02:19:54.713Z,958.31
2023-03-17T02:20:26.510Z,958.31
2023-03-17T02:20:56.716Z,958.41
2023-03-17T02:21:28.066Z,958.41
2023-03-17T02:21:59.126Z,958.52
2023-03-17T02:22:29.624Z,958.21
2023-03-17T02:23:00.797Z,958.21
2023-03-17T02:23:31.921Z,958.21
2023-03-17T02:24:02.963Z,958.21
2023-03-17T02:24:33.923Z,958.41
2023-03-17T02:25:05.472Z,958.41
2023-03-17T02:25:36.061Z,958.31
2023-03-17T02:26:07.112Z,958.31
2023-03-17T02:26:37.749Z,958.31
2023-03-17T02:27:08.938Z,958.31
2023-03-17T02:27:39.922Z,958.21
2023-03-17T02:28:11.048Z,958.21
2023-03-17T02:28:41.993Z,958.52
2023-03-17T02:29:13.014Z,958.52
2023-03-17T02:29:44.030Z,958.21
2023-03-17T02:30:16.369Z,958.21
2023-03-17T02:30:46.028Z,958.41
2023-03-17T02:31:17.155Z,958.41
2023-03-17T02:31:47.772Z,958.31
2023-03-17T02:32:19.000Z,958.31
2023-03-17T02:32:50.093Z,958.52
2023-03-17T02:33:20.670Z,958.52
2023-03-17T02:33:51.960Z,958.31
2023-03-17T02:34:23.006Z,958.31
2023-03-17T02:34:54.144Z,958.31
2023-03-17T02:35:25.280Z,958.31
2023-03-17T02:35:56.077Z,958.41
2023-03-17T02:36:27.512Z,958.41
2023-03-17T02:36:57.862Z,958.52
2023-03-17T02:37:31.320Z,958.58
2023-03-17T02:37:59.786Z,958.58
2023-03-17T02:38:33.297Z,958.52
2023-03-17T02:39:02.037Z,958.52
2023-03-17T02:39:33.787Z,958.58
2023-03-17T02:40:04.715Z,958.58
2023-03-17T02:40:35.111Z,958.52
2023-03-17T02:41:06.304Z,958.52
2023-03-17T02:41:36.875Z,958.52
2023-03-17T02:42:07.837Z,958.52
2023-03-17T02:42:38.917Z,958.41
2023-03-17T02:43:10.053Z,958.41
2023-03-17T02:43:41.212Z,958.31
2023-03-17T02:44:12.054Z,958.31
2023-03-17T02:44:43.189Z,958.31
2023-03-17T02:45:14.747Z,958.31
2023-03-17T02:45:44.915Z,958.58
2023-03-17T02:46:16.009Z,958.58
2023-03-17T02:46:47.244Z,958.52
2023-03-17T02:47:17.845Z,958.52
2023-03-17T02:47:49.174Z,958.41
2023-03-17T02:48:20.086Z,958.41
2023-03-17T02:48:50.864Z,958.52
2023-03-17T02:49:22.672Z,958.52
2023-03-17T02:49:52.826Z,958.41
2023-03-17T02:50:24.253Z,958.41
2023-03-17T02:50:55.222Z,958.41
2023-03-17T02:51:26.056Z,958.41
2023-03-17T02:51:57.072Z,958.31
2023-03-17T02:52:28.035Z,958.31
2023-03-17T02:52:58.843Z,958.52
2023-03-17T02:53:29.814Z,958.41
2023-03-17T02:54:00.783Z,958.41
2023-03-17T02:54:31.857Z,958.52
2023-03-17T02:55:03.830Z,958.52
2023-03-17T02:55:34.208Z,958.31
2023-03-17T02:56:04.839Z,958.31
2023-03-17T02:56:35.854Z,958.21
2023-03-17T02:57:06.857Z,958.21
2023-03-17T02:57:38.112Z,958.79
2023-03-17T02:58:09.192Z,958.79
2023-03-17T02:58:40.208Z,958.52
2023-03-17T02:59:11.354Z,958.52
2023-03-17T02:59:42.068Z,958.31
2023-03-17T03:00:14.380Z,958.31
2023-03-17T03:00:44.323Z,958.11
2023-03-17T03:01:15.224Z,958.11
2023-03-17T03:01:46.171Z,958.31
2023-03-17T03:02:17.319Z,958.31
2023-03-17T03:02:48.117Z,958.52
2023-03-17T03:03:19.198Z,958.52
2023-03-17T03:03:50.269Z,958.58
2023-03-17T03:04:21.111Z,958.58
2023-03-17T03:04:51.851Z,958.31
2023-03-17T03:05:23.560Z,958.31
2023-03-17T03:05:54.266Z,958.41
2023-03-17T03:06:24.901Z,958.41
2023-03-17T03:06:56.169Z,958.41
2023-03-17T03:07:26.898Z,958.41
2023-03-17T03:07:58.044Z,958.31
2023-03-17T03:08:29.282Z,958.41
2023-03-17T03:09:02.307Z,958.41
2023-03-17T03:09:31.250Z,958.21
2023-03-17T03:10:03.662Z,958.21
2023-03-17T03:10:32.920Z,958.31
2023-03-17T03:11:04.268Z,958.31
2023-03-17T03:11:35.341Z,958.52
2023-03-17T03:12:06.231Z,958.52
2023-03-17T03:12:37.268Z,958.11
2023-03-17T03:13:08.101Z,958.11
2023-03-17T03:13:39.227Z,958.21
2023-03-17T03:14:10.549Z,958.21
2023-03-17T03:14:40.846Z,958.31
2023-03-17T03:15:13.578Z,958.31
2023-03-17T03:15:43.390Z,958.31
2023-03-17T03:16:14.319Z,958.31
2023-03-17T03:16:45.530Z,958.31
2023-03-17T03:17:15.937Z,958.31
2023-03-17T03:17:47.107Z,958.21
2023-03-17T03:18:17.962Z,958.21
2023-03-17T03:18:48.916Z,958.21
2023-03-17T03:19:20.251Z,958.21
2023-03-17T03:19:51.186Z,958.31
2023-03-17T03:20:22.596Z,958.31
2023-03-17T03:20:52.951Z,958.41
2023-03-17T03:21:24.300Z,958.41
2023-03-17T03:21:54.929Z,958.52
2023-03-17T03:22:26.265Z,958.52
2023-03-17T03:22:56.917Z,958.41
2023-03-17T03:23:28.117Z,958.41
2023-03-17T03:23:58.937Z,958.41
2023-03-17T03:24:30.388Z,958.58
2023-03-17T03:25:01.956Z,958.58
2023-03-17T03:25:32.161Z,958.41
2023-03-17T03:26:03.315Z,958.41
2023-03-17T03:26:34.233Z,958.41
2023-03-17T03:27:05.132Z,958.41
2023-03-17T03:27:35.976Z,958.41
2023-03-17T03:28:06.934Z,958.41
2023-03-17T03:28:38.312Z,958.41
2023-03-17T03:29:09.178Z,958.41
2023-03-17T03:29:40.317Z,958.41
2023-03-17T03:30:12.498Z,958.41
2023-03-17T03:30:42.480Z,958.41
2023-03-17T03:31:13.420Z,958.41
2023-03-17T03:31:44.327Z,958.58
2023-03-17T03:32:15.353Z,958.58
2023-03-17T03:32:46.280Z,958.68
2023-03-17T03:33:16.955Z,958.68
2023-03-17T03:33:47.993Z,958.52
2023-03-17T03:34:19.452Z,958.52
2023-03-17T03:34:50.388Z,958.68
2023-03-17T03:35:21.322Z,958.68
2023-03-17T03:35:51.978Z,958.41
2023-03-17T03:36:23.011Z,958.41
2023-03-17T03:36:54.324Z,958.52
2023-03-17T03:37:25.366Z,958.52
2023-03-17T03:37:55.966Z,958.58
2023-03-17T03:38:26.979Z,958.58
2023-03-17T03:38:58.211Z,958.52
2023-03-17T03:39:29.514Z,958.58
2023-03-17T03:39:59.961Z,958.58
2023-03-17T03:40:33.587Z,958.58
2023-03-17T03:41:01.983Z,958.58
2023-03-17T03:41:35.265Z,958.68
2023-03-17T03:42:04.182Z,958.68
2023-03-17T03:42:35.359Z,958.58
2023-03-17T03:43:16.349Z,958.58
2023-03-17T03:43:37.149Z,958.52
2023-03-17T03:44:08.384Z,958.52
2023-03-17T03:44:39.454Z,958.41
2023-03-17T03:45:11.428Z,958.41
2023-03-17T03:45:41.094Z,958.58
2023-03-17T03:46:12.305Z,958.58
2023-03-17T03:46:43.433Z,958.58
2023-03-17T03:47:14.288Z,958.58
2023-03-17T03:47:44.969Z,958.52
2023-03-17T03:48:16.396Z,958.52
2023-03-17T03:48:47.041Z,958.68
2023-03-17T03:49:18.027Z,958.68
2023-03-17T03:49:49.218Z,958.52
2023-03-17T03:50:20.437Z,958.52
2023-03-17T03:50:51.021Z,958.58
2023-03-17T03:51:22.256Z,958.58
2023-03-17T03:51:52.980Z,958.52
2023-03-17T03:52:24.293Z,958.52
2023-03-17T03:52:55.310Z,958.79
2023-03-17T03:53:26.271Z,958.79
2023-03-17T03:53:57.048Z,958.41
2023-03-17T03:54:28.230Z,958.41
2023-03-17T03:54:59.361Z,958.58
2023-03-17T03:55:30.765Z,958.41
2023-03-17T03:56:00.963Z,958.41
2023-03-17T03:56:32.035Z,958.52
2023-03-17T03:57:03.355Z,958.52
2023-03-17T03:57:34.928Z,958.52
2023-03-17T03:58:05.293Z,958.52
2023-03-17T03:58:36.443Z,958.52
2023-03-17T03:59:07.880Z,958.52
2023-03-17T03:59:38.413Z,958.58
2023-03-17T04:00:09.974Z,958.58
2023-03-17T04:00:40.486Z,958.41
2023-03-17T04:01:11.398Z,958.41
2023-03-17T04:01:42.275Z,958.52
2023-03-17T04:02:13.056Z,958.52
2023-03-17T04:02:44.408Z,958.52
2023-03-17T04:03:15.413Z,958.52
2023-03-17T04:03:46.338Z,958.68
2023-03-17T04:04:17.622Z,958.68
2023-03-17T04:04:48.500Z,958.52
2023-03-17T04:05:19.934Z,958.52
2023-03-17T04:05:50.638Z,958.58
2023-03-17T04:06:21.604Z,958.58
2023-03-17T04:06:52.103Z,958.52
2023-03-17T04:07:23.225Z,958.52
2023-03-17T04:07:54.170Z,958.52
2023-03-17T04:08:25.218Z,958.52
2023-03-17T04:08:58.248Z,958.41
2023-03-17T04:09:27.420Z,958.41
2023-03-17T04:09:58.419Z,958.58
2023-03-17T04:10:30.490Z,958.52
2023-03-17T04:11:00.135Z,958.52
2023-03-17T04:11:31.070Z,958.41
2023-03-17T04:12:13.116Z,958.41
2023-03-17T04:12:33.369Z,958.52
2023-03-17T04:13:05.600Z,958.52
2023-03-17T04:13:35.566Z,958.41
2023-03-17T04:14:06.294Z,958.41
2023-03-17T04:14:37.382Z,958.31
2023-03-17T04:15:09.244Z,958.31
2023-03-17T04:15:39.551Z,958.52
2023-03-17T04:16:10.172Z,958.52
2023-03-17T04:16:43.380Z,958.41
2023-03-17T04:17:12.225Z,958.41
2023-03-17T04:17:43.122Z,958.68
2023-03-17T04:18:14.117Z,958.68
2023-03-17T04:18:45.119Z,958.41
2023-03-17T04:19:16.162Z,958.41
2023-03-17T04:19:47.126Z,958.68
2023-03-17T04:20:19.177Z,958.68
2023-03-17T04:20:49.050Z,958.41
2023-03-17T04:21:20.154Z,958.41
2023-03-17T04:21:53.602Z,958.41
2023-03-17T04:22:22.335Z,958.41
2023-03-17T04:22:53.294Z,958.41
2023-03-17T04:23:24.340Z,958.41
2023-03-17T04:23:55.879Z,958.41
2023-03-17T04:24:26.328Z,958.41
2023-03-17T04:24:57.372Z,958.52
2023-03-17T04:25:29.195Z,958.52
2023-03-17T04:25:59.536Z,958.58
2023-03-17T04:26:30.159Z,958.52
2023-03-17T04:27:01.149Z,958.52
2023-03-17T04:27:32.375Z,958.79
2023-03-17T04:28:03.283Z,958.79
2023-03-17T04:28:34.411Z,958.58
2023-03-17T04:29:05.505Z,958.58
2023-03-17T04:29:36.103Z,958.41
2023-03-17T04:30:07.964Z,958.41
2023-03-17T04:30:38.626Z,958.41
2023-03-17T04:31:09.383Z,958.41
2023-03-17T04:31:40.290Z,958.52
2023-03-17T04:32:11.169Z,958.52
2023-03-17T04:32:42.283Z,958.31
2023-03-17T04:33:13.233Z,958.31
2023-03-17T04:33:44.493Z,958.21
2023-03-17T04:34:15.759Z,958.21
2023-03-17T04:34:46.372Z,958.52
2023-03-17T04:35:18.164Z,958.52
2023-03-17T04:35:49.156Z,958.11
2023-03-17T04:36:19.365Z,958.11
2023-03-17T04:36:50.176Z,958.41
2023-03-17T04:37:21.319Z,958.41
2023-03-17T04:37:52.363Z,958.41
2023-03-17T04:38:23.290Z,958.41
2023-03-17T04:38:54.378Z,958.52
2023-03-17T04:39:25.546Z,958.52
2023-03-17T04:39:56.782Z,958.41
2023-03-17T04:40:27.687Z,958.41
2023-03-17T04:40:58.199Z,958.41
2023-03-17T04:41:29.252Z,958.31
2023-03-17T04:42:00.187Z,958.31
2023-03-17T04:42:31.475Z,958.41
2023-03-17T04:43:03.536Z,958.41
2023-03-17T04:43:43.382Z,958.31
2023-03-17T04:44:04.394Z,958.31
2023-03-17T04:44:38.036Z,958.31
2023-03-17T04:45:08.018Z,958.31
2023-03-17T04:45:37.614Z,958.21
2023-03-17T04:46:08.267Z,958.21
2023-03-17T04:46:39.605Z,958.58
2023-03-17T04:47:10.522Z,958.58
2023-03-17T04:47:41.401Z,958.58
2023-03-17T04:48:12.374Z,958.58
2023-03-17T04:48:43.174Z,958.52
2023-03-17T04:49:14.211Z,958.52
2023-03-17T04:49:45.349Z,958.31
2023-03-17T04:50:16.979Z,958.31
2023-03-17T04:50:47.189Z,958.52
2023-03-17T04:51:18.565Z,958.52
2023-03-17T04:51:49.523Z,958.31
2023-03-17T04:52:20.724Z,958.31
2023-03-17T04:52:51.460Z,958.52
2023-03-17T04:53:22.212Z,958.52
2023-03-17T04:53:53.217Z,958.68
2023-03-17T04:54:24.606Z,958.68
2023-03-17T04:54:55.214Z,958.41
2023-03-17T04:55:26.773Z,958.41
2023-03-17T04:55:57.589Z,958.58
2023-03-17T04:56:31.156Z,958.58
2023-03-17T04:56:59.591Z,958.31
2023-03-17T04:57:30.605Z,958.41
2023-03-17T04:58:01.464Z,958.41
2023-03-17T04:58:32.414Z,958.52
2023-03-17T04:59:03.263Z,958.52
2023-03-17T04:59:34.483Z,958.41
2023-03-17T05:00:06.110Z,958.41
2023-03-17T05:00:36.323Z,958.31
2023-03-17T05:01:07.477Z,958.31
2023-03-17T05:01:39.267Z,958.52
2023-03-17T05:02:09.404Z,958.52
2023-03-17T05:02:40.470Z,958.68
2023-03-17T05:03:25.770Z,958.68
2023-03-17T05:03:42.574Z,958.52
2023-03-17T05:04:22.097Z,958.52
2023-03-17T05:04:44.605Z,958.58
2023-03-17T05:05:16.295Z,958.58
2023-03-17T05:05:46.291Z,958.58
2023-03-17T05:06:17.424Z,958.58
2023-03-17T05:06:48.667Z,958.31
2023-03-17T05:07:19.533Z,958.31
2023-03-17T05:07:50.479Z,958.52
2023-03-17T05:08:21.227Z,958.52
2023-03-17T05:08:52.285Z,958.52
2023-03-17T05:09:23.434Z,958.52
2023-03-17T05:09:54.529Z,958.31
2023-03-17T05:10:26.195Z,958.31
2023-03-17T05:10:56.492Z,958.41
2023-03-17T05:11:27.932Z,958.41
2023-03-17T05:11:58.837Z,958.41
2023-03-17T05:12:29.462Z,958.52
2023-03-17T05:13:00.284Z,958.52
2023-03-17T05:13:31.501Z,958.52
2023-03-17T05:14:02.666Z,958.52
2023-03-17T05:14:33.568Z,958.58
2023-03-17T05:15:06.575Z,958.58
2023-03-17T05:15:35.642Z,958.58
2023-03-17T05:16:06.969Z,958.58
2023-03-17T05:16:37.601Z,958.41
2023-03-17T05:17:08.550Z,958.41
2023-03-17T05:17:39.305Z,958.52
2023-03-17T05:18:10.496Z,958.52
2023-03-17T05:18:41.653Z,958.52
2023-03-17T05:19:12.491Z,958.52
2023-03-17T05:19:43.705Z,958.58
2023-03-17T05:20:15.068Z,958.58
2023-03-17T05:20:45.352Z,958.31
2023-03-17T05:21:21.740Z,958.31
2023-03-17T05:21:47.354Z,958.58
2023-03-17T05:22:18.426Z,958.58
2023-03-17T05:22:49.478Z,958.52
2023-03-17T05:23:20.545Z,958.52
2023-03-17T05:23:53.360Z,958.21
2023-03-17T05:24:22.562Z,958.21
2023-03-17T05:24:53.629Z,958.41
2023-03-17T05:25:25.062Z,958.41
2023-03-17T05:25:55.351Z,958.41
2023-03-17T05:26:26.808Z,958.41
2023-03-17T05:26:57.492Z,958.31
2023-03-17T05:27:28.491Z,958.31
2023-03-17T05:27:59.573Z,958.21
2023-03-17T05:28:30.592Z,958.31
2023-03-17T05:29:01.834Z,958.31
2023-03-17T05:29:32.369Z,958.31
2023-03-17T05:30:04.454Z,958.31
2023-03-17T05:30:35.017Z,958.52
2023-03-17T05:31:05.771Z,958.52
2023-03-17T05:31:36.387Z,958.31
2023-03-17T05:32:07.647Z,958.31
2023-03-17T05:32:38.432Z,958.52
2023-03-17T05:33:10.604Z,958.52
2023-03-17T05:33:40.441Z,958.41
2023-03-17T05:34:12.153Z,958.41
2023-03-17T05:34:42.790Z,958.52
2023-03-17T05:35:14.347Z,958.52
2023-03-17T05:35:44.869Z,958.41
2023-03-17T05:36:15.480Z,958.41
2023-03-17T05:36:46.679Z,958.41
2023-03-17T05:37:17.498Z,958.41
2023-03-17T05:37:48.761Z,958.21
2023-03-17T05:38:19.737Z,958.21
2023-03-17T05:38:50.796Z,958.21
2023-03-17T05:39:21.830Z,958.21
2023-03-17T05:39:52.858Z,958.31
2023-03-17T05:40:24.395Z,958.31
2023-03-17T05:40:54.789Z,958.21
2023-03-17T05:41:25.453Z,958.21
2023-03-17T05:41:56.772Z,958.21
2023-03-17T05:42:27.779Z,958.21
2023-03-17T05:42:58.572Z,958.11
2023-03-17T05:43:29.728Z,958.01
2023-03-17T05:44:00.916Z,958.01
2023-03-17T05:44:31.448Z,958.01
2023-03-17T05:45:03.688Z,958.01
2023-03-17T05:45:34.108Z,958.21
2023-03-17T05:46:04.799Z,958.21
2023-03-17T05:46:37.972Z,958.31
2023-03-17T05:47:06.811Z,958.31
2023-03-17T05:47:39.618Z,958.11
2023-03-17T05:48:08.622Z,958.11
2023-03-17T05:48:40.607Z,958.21
2023-03-17T05:49:10.830Z,958.21
2023-03-17T05:49:41.477Z,958.11
2023-03-17T05:50:13.271Z,958.11
2023-03-17T05:50:44.054Z,958.11
2023-03-17T05:51:14.622Z,958.11
2023-03-17T05:51:46.716Z,958.21
2023-03-17T05:52:16.854Z,958.21
2023-03-17T05:52:47.909Z,958.21
2023-03-17T05:53:18.734Z,958.21
2023-03-17T05:53:49.781Z,958.31
2023-03-17T05:54:20.485Z,958.31
2023-03-17T05:54:51.673Z,958.11
2023-03-17T05:55:23.036Z,958.11
2023-03-17T05:55:53.845Z,958.01
2023-03-17T05:56:24.920Z,958.01
2023-03-17T05:56:56.371Z,958.21
2023-03-17T05:57:26.461Z,958.21
2023-03-17T05:57:57.755Z,958.31
2023-03-17T05:58:28.805Z,958.31
2023-03-17T05:58:59.877Z,958.11
2023-03-17T05:59:30.912Z,958.21
2023-03-17T06:00:03.055Z,958.21
2023-03-17T06:00:33.403Z,958.01
2023-03-17T06:01:03.887Z,958.01
2023-03-17T06:01:34.926Z,957.91
2023-03-17T06:02:05.899Z,957.91
2023-03-17T06:02:37.256Z,958.01
2023-03-17T06:03:08.057Z,958.01
2023-03-17T06:03:38.998Z,958.31
2023-03-17T06:04:09.570Z,958.31
2023-03-17T06:04:40.595Z,958.01
2023-03-17T06:05:12.264Z,958.01
2023-03-17T06:05:42.942Z,958.21
2023-03-17T06:06:13.552Z,958.21
2023-03-17T06:06:44.921Z,958.21
2023-03-17T06:07:15.942Z,958.21
2023-03-17T06:07:54.676Z,958.11
2023-03-17T06:08:17.955Z,958.11
2023-03-17T06:08:48.909Z,958.11
2023-03-17T06:09:19.911Z,958.11
2023-03-17T06:09:50.652Z,958.01
2023-03-17T06:10:23.020Z,958.01
2023-03-17T06:10:52.844Z,958.21
2023-03-17T06:11:23.556Z,958.21
2023-03-17T06:11:54.523Z,958.11
2023-03-17T06:12:26.029Z,958.11
2023-03-17T06:12:56.995Z,958.11
2023-03-17T06:13:27.804Z,958.11
2023-03-17T06:13:58.908Z,958.21
2023-03-17T06:14:30.028Z,958.21
2023-03-17T06:15:01.980Z,958.21
2023-03-17T06:15:32.459Z,958.21
2023-03-17T06:16:02.609Z,958.21
2023-03-17T06:16:33.903Z,958.41
2023-03-17T06:17:04.749Z,958.41
2023-03-17T06:17:35.908Z,958.11
2023-03-17T06:18:08.665Z,958.11
2023-03-17T06:18:37.791Z,958.11
2023-03-17T06:19:11.213Z,958.11
2023-03-17T06:19:39.599Z,957.91
2023-03-17T06:20:11.600Z,957.91
2023-03-17T06:20:42.246Z,958.11
2023-03-17T06:21:12.781Z,958.11
2023-03-17T06:21:43.992Z,958.31
2023-03-17T06:22:14.596Z,958.31
2023-03-17T06:23:02.165Z,958.21
2023-03-17T06:23:16.616Z,958.21
2023-03-17T06:23:47.780Z,958.11
2023-03-17T06:24:18.561Z,958.11
2023-03-17T06:24:49.902Z,958.41
2023-03-17T06:25:21.300Z,958.41
2023-03-17T06:25:52.190Z,958.21
2023-03-17T06:26:23.074Z,958.21
2023-03-17T06:26:53.609Z,958.31